Paynesville, Minnesota
Current Conditions -  °F | °C
As of 4:14 AM on Friday 31 Oct 2014 (Local Time) from KPEX Reporting Station
Clear Clear  
Wind Chill: 12°   Ceiling: Unl
Heat Index: 21°   Visibility: 10mi
Dew Point: 17°   Wind: 8mph
Humidity: 82%   Direction: 280°W
Pressure: 30.51"   Gusts: NA
Location:  45.38°N, 94.71°W
Report Text: KPEX 310914Z AUTO 28007KT 10SM CLR M06/M08 A3051 RMK AO2 T10591085
Loading
Personal Weather Stations






























Interactive Weather Map
Tropical Storm Tracking
New forecast layout! Learn more

10-Day Weather Forecast

Advertisements
Track Severe Weather on mobile